createdAt,value
2023-06-29T00:02:21.143Z,-18677.63
2023-06-29T00:05:24.266Z,-18675.03
2023-06-29T00:08:28.580Z,-18672.59
2023-06-29T00:11:32.059Z,-18671.09
2023-06-29T00:14:34.774Z,-18667.94
2023-06-29T00:17:38.082Z,-18666.19
2023-06-29T00:20:42.127Z,-18665.78
2023-06-29T00:23:47.169Z,-18666.19
2023-06-29T00:26:50.272Z,-18665.50
2023-06-29T00:29:53.128Z,-18664.13
2023-06-29T00:32:56.144Z,-18664.13
2023-06-29T00:35:59.081Z,-18664.81
2023-06-29T00:39:01.634Z,-18664.81
2023-06-29T00:42:07.045Z,-18665.50
2023-06-29T00:45:10.425Z,-18666.03
2023-06-29T00:48:13.896Z,-18666.19
2023-06-29T00:51:17.365Z,-18666.59
2023-06-29T00:54:21.729Z,-18667.81
2023-06-29T00:57:25.356Z,-18668.22
2023-06-29T01:00:28.466Z,-18670.00
2023-06-29T01:03:32.192Z,-18670.94
2023-06-29T01:06:45.641Z,-18671.50
2023-06-29T01:09:48.647Z,-18671.50
2023-06-29T01:12:52.848Z,-18670.00
2023-06-29T01:15:56.355Z,-18670.94
2023-06-29T01:19:01.239Z,-18671.91
2023-06-29T01:22:09.271Z,-18672.59
2023-06-29T01:25:12.676Z,-18673.66
2023-06-29T01:28:15.458Z,-18673.66
2023-06-29T01:31:18.925Z,-18676.25
2023-06-29T01:34:22.869Z,-18675.03
2023-06-29T01:37:29.685Z,-18673.66
2023-06-29T01:40:33.556Z,-18672.44
2023-06-29T01:43:37.477Z,-18671.09
2023-06-29T01:46:40.593Z,-18671.78
2023-06-29T01:49:43.730Z,-18671.63
2023-06-29T01:52:46.598Z,-18669.59
2023-06-29T01:55:50.624Z,-18669.88
2023-06-29T01:58:53.301Z,-18668.37
2023-06-29T02:01:56.203Z,-18667.69
2023-06-29T02:05:00.319Z,-18666.03
2023-06-29T02:08:03.096Z,-18664.41
2023-06-29T02:11:06.118Z,-18663.03
2023-06-29T02:14:08.973Z,-18664.97
2023-06-29T02:17:11.902Z,-18663.88
2023-06-29T02:20:15.306Z,-18663.59
2023-06-29T02:23:17.892Z,-18662.91
2023-06-29T02:26:20.906Z,-18662.50
2023-06-29T02:29:24.422Z,-18664.97
2023-06-29T02:32:28.999Z,-18665.22
2023-06-29T02:35:31.671Z,-18664.97
2023-06-29T02:38:35.545Z,-18666.47
2023-06-29T02:41:38.173Z,-18665.22
2023-06-29T02:44:41.227Z,-18666.03
2023-06-29T02:47:44.134Z,-18666.47
2023-06-29T02:50:47.384Z,-18662.78
2023-06-29T02:53:50.270Z,-18661.69
2023-06-29T02:56:53.216Z,-18659.78
2023-06-29T02:59:55.853Z,-18658.69
2023-06-29T03:02:58.883Z,-18658.00
2023-06-29T03:06:01.553Z,-18660.31
2023-06-29T03:09:05.388Z,-18662.22
2023-06-29T03:12:10.536Z,-18660.06
2023-06-29T03:15:13.390Z,-18660.06
2023-06-29T03:18:15.981Z,-18659.09
2023-06-29T03:21:21.540Z,-18661.41
2023-06-29T03:24:24.050Z,-18661.56
2023-06-29T03:27:26.919Z,-18660.59
2023-06-29T03:30:29.456Z,-18661.41
2023-06-29T03:33:32.418Z,-18663.47
2023-06-29T03:36:34.996Z,-18664.69
2023-06-29T03:39:37.924Z,-18666.47
2023-06-29T03:42:40.523Z,-18669.44
2023-06-29T03:45:43.849Z,-18672.44
2023-06-29T03:48:46.604Z,-18673.28
2023-06-29T03:51:49.458Z,-18678.03
2023-06-29T03:54:52.083Z,-18681.84
2023-06-29T03:57:55.945Z,-18681.84
2023-06-29T04:00:58.558Z,-18682.00
2023-06-29T04:04:01.446Z,-18682.81
2023-06-29T04:07:04.250Z,-18685.81
2023-06-29T04:10:07.573Z,-18689.75
2023-06-29T04:13:10.255Z,-18690.28
2023-06-29T04:16:13.101Z,-18692.75
2023-06-29T04:19:17.134Z,-18693.84
2023-06-29T04:22:20.047Z,-18695.34
2023-06-29T04:25:22.645Z,-18698.06
2023-06-29T04:28:25.532Z,-18702.28
2023-06-29T04:31:29.439Z,-18702.28
2023-06-29T04:34:32.312Z,-18705.81
2023-06-29T04:37:41.758Z,-18706.91
2023-06-29T04:40:44.864Z,-18708.28
2023-06-29T04:43:48.941Z,-18712.91
2023-06-29T04:46:51.888Z,-18712.91
2023-06-29T04:49:58.083Z,-18716.03
2023-06-29T04:53:07.136Z,-18718.59
2023-06-29T04:56:09.810Z,-18723.22
2023-06-29T04:59:12.634Z,-18726.91
2023-06-29T05:02:15.272Z,-18726.22
2023-06-29T05:05:18.346Z,-18728.66
2023-06-29T05:08:20.989Z,-18727.59
2023-06-29T05:11:23.848Z,-18730.03
2023-06-29T05:14:27.741Z,-18734.38
2023-06-29T05:17:31.478Z,-18737.66
2023-06-29T05:20:35.515Z,-18742.53
2023-06-29T05:23:38.878Z,-18747.44
2023-06-29T05:26:41.409Z,-18746.88
2023-06-29T05:29:44.234Z,-18750.56
2023-06-29T05:32:46.862Z,-18751.78
2023-06-29T05:35:49.922Z,-18750.16
2023-06-29T05:38:52.592Z,-18755.19
2023-06-29T05:41:55.457Z,-18757.91
2023-06-29T05:44:59.750Z,-18760.63
2023-06-29T05:48:02.696Z,-18760.19
2023-06-29T05:51:05.383Z,-18761.69
2023-06-29T05:54:08.271Z,-18762.38
2023-06-29T05:57:10.937Z,-18767.28
2023-06-29T06:00:14.364Z,-18766.72
2023-06-29T06:03:21.243Z,-18768.50
2023-06-29T06:06:24.191Z,-18771.88
2023-06-29T06:09:27.089Z,-18775.28
2023-06-29T06:12:29.770Z,-18774.19
2023-06-29T06:15:32.762Z,-18775.97
2023-06-29T06:18:35.463Z,-18776.78
2023-06-29T06:21:38.374Z,-18775.56
2023-06-29T06:24:41.010Z,-18774.47
2023-06-29T06:27:44.704Z,-18771.06
2023-06-29T06:30:48.315Z,-18779.75
2023-06-29T06:33:54.233Z,-18789.53
2023-06-29T06:36:57.162Z,-18793.34
2023-06-29T06:40:00.100Z,-18796.19
2023-06-29T06:43:03.236Z,-18796.44
2023-06-29T06:46:06.083Z,-18798.34
2023-06-29T06:49:09.038Z,-18798.88
2023-06-29T06:52:12.010Z,-18800.38
2023-06-29T06:55:14.638Z,-18805.00
2023-06-29T06:58:17.471Z,-18808.66
2023-06-29T07:01:22.956Z,-18805.00
2023-06-29T07:04:25.903Z,-18805.28
2023-06-29T07:07:28.577Z,-18806.91
2023-06-29T07:10:31.393Z,-18812.31
2023-06-29T07:13:34.127Z,-18812.19
2023-06-29T07:16:37.080Z,-18815.56
2023-06-29T07:25:51.584Z,-18829.53
2023-06-29T07:28:54.594Z,-18823.03
2023-06-29T07:31:57.594Z,-18826.16
2023-06-29T07:35:00.502Z,-18831.97
2023-06-29T07:38:03.168Z,-18828.84
2023-06-29T07:41:06.340Z,-18826.56
2023-06-29T07:44:09.011Z,-18833.06
2023-06-29T07:47:11.990Z,-18830.75
2023-06-29T07:50:14.937Z,-18837.53
2023-06-29T07:53:17.841Z,-18841.44
2023-06-29T07:56:20.470Z,-18839.00
2023-06-29T07:59:23.448Z,-18840.78
2023-06-29T08:02:26.111Z,-18845.09
2023-06-29T08:08:34.833Z,-18851.75
2023-06-29T08:11:38.383Z,-18854.31
2023-06-29T08:14:40.966Z,-18859.31
2023-06-29T08:17:44.129Z,-18850.94
2023-06-29T08:20:49.668Z,-18852.28
2023-06-29T08:23:52.576Z,-18856.88
2023-06-29T08:26:55.353Z,-18858.38
2023-06-29T08:29:58.320Z,-18861.62
2023-06-29T08:33:00.934Z,-18859.47
2023-06-29T08:36:04.012Z,-18861.50
2023-06-29T08:39:06.745Z,-18854.84
2023-06-29T08:42:09.672Z,-18864.75
2023-06-29T08:45:12.493Z,-18872.44
2023-06-29T08:48:16.027Z,-18878.94
2023-06-29T08:51:20.348Z,-18889.34
2023-06-29T08:54:23.569Z,-18878.94
2023-06-29T08:57:26.236Z,-18872.84
2023-06-29T09:00:29.897Z,-18871.38
2023-06-29T09:03:33.355Z,-18870.69
2023-06-29T09:06:36.243Z,-18874.34
2023-06-29T09:09:39.152Z,-18867.16
2023-06-29T09:12:42.379Z,-18865.00
2023-06-29T09:15:46.403Z,-18870.69
2023-06-29T09:18:50.519Z,-18884.34
2023-06-29T09:21:53.148Z,-18907.88
2023-06-29T09:25:09.861Z,-18906.50
2023-06-29T09:28:16.177Z,-18902.06
2023-06-29T09:31:19.200Z,-18901.66
2023-06-29T09:34:23.644Z,-18890.16
2023-06-29T09:37:26.550Z,-18898.69
2023-06-29T09:40:29.378Z,-18904.91
2023-06-29T09:43:32.333Z,-18903.13
2023-06-29T09:46:37.261Z,-18910.03
2023-06-29T09:49:50.003Z,-18907.06
2023-06-29T09:52:55.044Z,-18903.00
2023-06-29T09:56:00.070Z,-18901.38
2023-06-29T09:59:03.570Z,-18899.91
2023-06-29T10:02:10.417Z,-18916.09
2023-06-29T10:05:13.371Z,-18934.31
2023-06-29T10:08:19.873Z,-18938.78
2023-06-29T10:11:28.304Z,-18938.09
2023-06-29T10:14:33.960Z,-18941.22
2023-06-29T10:18:16.337Z,-18936.34
2023-06-29T10:21:19.031Z,-18937.56
2023-06-29T10:24:25.825Z,-18936.22
2023-06-29T10:27:31.035Z,-18938.25
2023-06-29T10:31:03.297Z,-18923.00
2023-06-29T10:34:08.797Z,-18912.59
2023-06-29T10:37:11.702Z,-18917.59
2023-06-29T10:40:16.800Z,-18932.31
2023-06-29T10:43:19.728Z,-18934.31
2023-06-29T10:46:47.460Z,-18930.41
2023-06-29T10:49:56.753Z,-18949.56
2023-06-29T10:53:01.209Z,-18954.84
2023-06-29T10:56:04.317Z,-18961.03
2023-06-29T10:59:09.464Z,-18958.19
2023-06-29T11:02:13.122Z,-18960.09
2023-06-29T11:05:20.082Z,-18964.66
2023-06-29T11:08:24.032Z,-18971.00
2023-06-29T11:11:26.753Z,-18979.50
2023-06-29T11:14:29.839Z,-18971.53
2023-06-29T11:17:32.476Z,-18971.53
2023-06-29T11:20:38.884Z,-18981.38
2023-06-29T11:23:50.739Z,-18975.44
2023-06-29T11:26:56.812Z,-18960.34
2023-06-29T11:29:59.714Z,-18972.09
2023-06-29T11:33:05.270Z,-18979.09
2023-06-29T11:36:13.568Z,-18977.75
2023-06-29T11:39:18.953Z,-18987.16
2023-06-29T11:42:23.606Z,-18986.75
2023-06-29T11:45:26.683Z,-18987.69
2023-06-29T11:48:31.200Z,-18992.16
2023-06-29T11:55:07.395Z,-19010.19
2023-06-29T11:58:14.291Z,-19007.09
2023-06-29T12:01:17.129Z,-18973.44
2023-06-29T12:04:20.387Z,-18970.88
2023-06-29T12:07:55.522Z,-18975.72
2023-06-29T12:10:58.463Z,-18979.09
2023-06-29T12:14:02.308Z,-18971.94
2023-06-29T12:20:19.807Z,-18976.25
2023-06-29T12:23:22.896Z,-18978.94
2023-06-29T12:26:26.299Z,-18985.94
2023-06-29T12:29:29.158Z,-18992.00
2023-06-29T12:32:31.825Z,-18996.72
2023-06-29T12:35:34.953Z,-18985.16
2023-06-29T12:38:37.594Z,-18968.03
2023-06-29T12:41:40.405Z,-18968.56
2023-06-29T12:44:43.030Z,-18970.19
2023-06-29T12:47:45.937Z,-18980.69
2023-06-29T12:50:48.906Z,-18991.88
2023-06-29T12:53:52.013Z,-18997.38
2023-06-29T12:56:54.621Z,-19000.63
2023-06-29T12:59:59.297Z,-18995.25
2023-06-29T13:03:06.768Z,-18993.50
2023-06-29T13:06:09.830Z,-18995.50
2023-06-29T13:09:12.489Z,-18984.06
2023-06-29T13:12:15.992Z,-18973.44
2023-06-29T13:15:18.773Z,-18979.75
2023-06-29T13:18:21.669Z,-18985.53
2023-06-29T13:21:24.441Z,-18985.00
2023-06-29T13:24:27.468Z,-18992.81
2023-06-29T13:27:30.064Z,-18996.19
2023-06-29T13:30:33.520Z,-19004.13
2023-06-29T13:33:36.174Z,-19011.37
2023-06-29T13:36:39.158Z,-19014.22
2023-06-29T13:39:42.278Z,-19018.91
2023-06-29T13:42:45.321Z,-19021.47
2023-06-29T13:45:49.832Z,-19027.94
2023-06-29T13:48:53.248Z,-19020.25
2023-06-29T13:51:55.928Z,-19038.00
2023-06-29T13:54:59.233Z,-19022.69
2023-06-29T13:58:01.923Z,-19019.31
2023-06-29T14:01:04.755Z,-19034.25
2023-06-29T14:04:09.645Z,-19049.28
2023-06-29T14:07:12.385Z,-19039.34
2023-06-29T14:10:15.386Z,-19031.56
2023-06-29T14:13:17.974Z,-19031.97
2023-06-29T14:16:20.943Z,-19041.22
2023-06-29T14:19:23.553Z,-19048.88
2023-06-29T14:22:26.464Z,-19040.56
2023-06-29T14:25:29.080Z,-19036.00
2023-06-29T14:28:31.903Z,-19044.44
2023-06-29T14:31:36.616Z,-19065.66
2023-06-29T14:34:39.962Z,-19085.78
2023-06-29T14:37:42.581Z,-19092.75
2023-06-29T14:40:45.407Z,-19104.94
2023-06-29T14:43:48.015Z,-19109.09
2023-06-29T14:46:51.737Z,-19118.31
2023-06-29T14:49:54.342Z,-19143.88
2023-06-29T14:52:57.443Z,-19170.34
2023-06-29T14:56:08.283Z,-19197.81
2023-06-29T14:59:12.412Z,-19228.22
2023-06-29T15:02:15.192Z,-19273.69
2023-06-29T15:05:18.092Z,-19298.38
2023-06-29T15:08:20.700Z,-19321.72
2023-06-29T15:11:23.599Z,-19222.34
2023-06-29T15:14:26.720Z,-19148.16
2023-06-29T15:17:30.519Z,-19094.50
2023-06-29T15:20:33.264Z,-19058.94
2023-06-29T15:23:36.111Z,-19028.31
2023-06-29T15:26:38.863Z,-19054.66
2023-06-29T15:29:41.729Z,-19042.97
2023-06-29T15:32:44.394Z,-19026.72
2023-06-29T15:35:47.744Z,-19009.50
2023-06-29T15:38:50.605Z,-18991.59
2023-06-29T15:41:53.656Z,-18993.34
2023-06-29T15:44:56.373Z,-18981.50
2023-06-29T15:47:59.467Z,-18976.12
2023-06-29T15:51:02.388Z,-18976.12
2023-06-29T15:54:05.282Z,-18984.19
2023-06-29T15:57:07.905Z,-19002.38
2023-06-29T16:00:11.251Z,-19101.59
2023-06-29T16:03:14.213Z,-19197.56
2023-06-29T16:06:26.404Z,-19261.72
2023-06-29T16:09:33.282Z,-19301.56
2023-06-29T16:12:36.286Z,-19310.19
2023-06-29T16:15:38.861Z,-19315.75
2023-06-29T16:18:43.073Z,-19265.31
2023-06-29T16:21:46.508Z,-19196.09
2023-06-29T16:24:49.354Z,-19131.84
2023-06-29T16:27:52.191Z,-19098.78
2023-06-29T16:30:57.342Z,-19054.13
2023-06-29T16:34:00.068Z,-19026.97
2023-06-29T16:37:03.111Z,-19012.19
2023-06-29T16:40:06.568Z,-19008.44
2023-06-29T16:43:09.623Z,-19004.66
2023-06-29T16:46:12.193Z,-19003.19
2023-06-29T16:49:15.169Z,-19001.56
2023-06-29T16:52:17.740Z,-18993.34
2023-06-29T16:55:20.864Z,-18982.84
2023-06-29T16:58:27.082Z,-18978.00
2023-06-29T17:01:30.119Z,-18967.22
2023-06-29T17:04:32.860Z,-18957.66
2023-06-29T17:07:35.778Z,-18952.94
2023-06-29T17:10:38.498Z,-18950.50
2023-06-29T17:13:41.734Z,-18948.22
2023-06-29T17:16:44.545Z,-18944.97
2023-06-29T17:19:50.080Z,-18944.03
2023-06-29T17:22:52.667Z,-18939.72
2023-06-29T17:25:55.616Z,-18942.16
2023-06-29T17:28:58.387Z,-18939.47
2023-06-29T17:32:01.375Z,-18938.09
2023-06-29T17:35:04.339Z,-18936.34
2023-06-29T17:38:07.546Z,-18935.41
2023-06-29T17:41:11.630Z,-18931.63
2023-06-29T17:44:15.620Z,-18929.47
2023-06-29T17:47:18.364Z,-18925.16
2023-06-29T17:50:21.533Z,-18921.09
2023-06-29T17:53:24.063Z,-18915.56
2023-06-29T17:56:26.975Z,-18913.13
2023-06-29T17:59:29.575Z,-18910.56
2023-06-29T18:02:32.583Z,-18907.31
2023-06-29T18:05:35.623Z,-18905.69
2023-06-29T18:08:38.588Z,-18904.22
2023-06-29T18:11:41.431Z,-18901.25
2023-06-29T18:14:44.073Z,-18897.06
2023-06-29T18:17:46.963Z,-18894.34
2023-06-29T18:20:49.685Z,-18893.28
2023-06-29T18:23:52.604Z,-18890.16
2023-06-29T18:26:55.300Z,-18886.50
2023-06-29T18:29:58.258Z,-18885.03
2023-06-29T18:33:00.933Z,-18880.28
2023-06-29T18:36:04.094Z,-18878.94
2023-06-29T18:39:06.793Z,-18875.97
2023-06-29T18:42:11.343Z,-18872.19
2023-06-29T18:45:13.999Z,-18870.16
2023-06-29T18:48:16.876Z,-18866.78
2023-06-29T18:51:23.974Z,-18865.81
2023-06-29T18:54:27.036Z,-18864.88
2023-06-29T18:57:29.785Z,-18862.28
2023-06-29T19:00:32.716Z,-18859.31
2023-06-29T19:03:35.549Z,-18860.00
2023-06-29T19:06:38.543Z,-18859.47
2023-06-29T19:09:41.079Z,-18856.75
2023-06-29T19:12:43.931Z,-18852.97
2023-06-29T19:15:47.110Z,-18848.22
2023-06-29T19:18:50.399Z,-18845.94
2023-06-29T19:21:53.394Z,-18842.13
2023-06-29T19:24:56.362Z,-18839.69
2023-06-29T19:27:59.019Z,-18836.72
2023-06-29T19:31:02.173Z,-18833.19
2023-06-29T19:34:04.955Z,-18829.66
2023-06-29T19:37:07.800Z,-18825.19
2023-06-29T19:40:11.048Z,-18822.63
2023-06-29T19:43:14.026Z,-18819.91
2023-06-29T19:46:16.711Z,-18816.94
2023-06-29T19:49:20.154Z,-18813.13
2023-06-29T19:52:23.995Z,-18810.81
2023-06-29T19:55:26.858Z,-18808.94
2023-06-29T19:58:29.720Z,-18806.75
2023-06-29T20:01:32.723Z,-18803.91
2023-06-29T20:04:35.653Z,-18802.56
2023-06-29T20:07:40.733Z,-18800.53
2023-06-29T20:10:44.001Z,-18797.94
2023-06-29T20:13:46.834Z,-18795.63
2023-06-29T20:16:50.240Z,-18793.59
2023-06-29T20:19:55.189Z,-18792.50
2023-06-29T20:22:58.342Z,-18789.94
2023-06-29T20:26:01.223Z,-18788.72
2023-06-29T20:29:04.378Z,-18786.12
2023-06-29T20:32:07.553Z,-18784.91
2023-06-29T20:35:10.492Z,-18783.56
2023-06-29T20:38:13.128Z,-18782.47
2023-06-29T20:41:16.071Z,-18780.31
2023-06-29T20:44:19.524Z,-18778.81
2023-06-29T20:47:22.395Z,-18777.84
2023-06-29T20:50:25.256Z,-18778.13
2023-06-29T20:53:28.138Z,-18778.66
2023-06-29T20:56:30.996Z,-18776.78
2023-06-29T20:59:35.047Z,-18775.97
2023-06-29T21:02:38.138Z,-18775.13
2023-06-29T21:05:41.298Z,-18775.69
2023-06-29T21:08:44.027Z,-18773.66
2023-06-29T21:11:47.120Z,-18772.03
2023-06-29T21:14:50.040Z,-18771.06
2023-06-29T21:17:54.909Z,-18770.25
2023-06-29T21:20:57.800Z,-18769.44
2023-06-29T21:24:00.944Z,-18768.75
2023-06-29T21:27:03.972Z,-18767.69
2023-06-29T21:30:08.105Z,-18765.78
2023-06-29T21:33:10.902Z,-18763.47
2023-06-29T21:36:14.199Z,-18760.63
2023-06-29T21:39:16.754Z,-18758.56
2023-06-29T21:42:19.879Z,-18756.94
2023-06-29T21:45:25.984Z,-18754.22
2023-06-29T21:48:29.223Z,-18753.00
2023-06-29T21:51:32.012Z,-18751.09
2023-06-29T21:54:34.869Z,-18750.00
2023-06-29T21:57:37.634Z,-18748.94
2023-06-29T22:00:41.267Z,-18747.16
2023-06-29T22:03:45.268Z,-18745.25
2023-06-29T22:06:49.985Z,-18746.22
2023-06-29T22:09:54.737Z,-18743.62
2023-06-29T22:12:57.407Z,-18740.78
2023-06-29T22:16:00.272Z,-18739.00
2023-06-29T22:19:02.991Z,-18736.69
2023-06-29T22:22:08.559Z,-18733.97
2023-06-29T22:25:11.618Z,-18733.56
2023-06-29T22:28:15.632Z,-18731.94
2023-06-29T22:31:19.069Z,-18730.97
2023-06-29T22:34:22.527Z,-18730.44
2023-06-29T22:37:25.151Z,-18728.41
2023-06-29T22:40:28.062Z,-18727.72
2023-06-29T22:43:30.688Z,-18726.22
2023-06-29T22:46:33.631Z,-18725.28
2023-06-29T22:49:36.300Z,-18723.91
2023-06-29T22:52:39.190Z,-18721.31
2023-06-29T22:55:41.838Z,-18719.41
2023-06-29T22:58:44.744Z,-18718.47
2023-06-29T23:01:49.774Z,-18717.09
2023-06-29T23:04:53.623Z,-18715.75
2023-06-29T23:07:56.360Z,-18714.94
2023-06-29T23:10:59.270Z,-18712.63
2023-06-29T23:14:01.816Z,-18711.53
2023-06-29T23:17:04.930Z,-18710.56
2023-06-29T23:20:12.629Z,-18710.31
2023-06-29T23:23:15.406Z,-18709.09
2023-06-29T23:26:20.415Z,-18708.41
2023-06-29T23:29:23.419Z,-18708.00
2023-06-29T23:32:26.615Z,-18707.59
2023-06-29T23:35:29.473Z,-18706.09
2023-06-29T23:38:32.051Z,-18705.81
2023-06-29T23:41:34.955Z,-18703.09
2023-06-29T23:44:41.610Z,-18702.00
2023-06-29T23:47:44.719Z,-18701.88
2023-06-29T23:50:48.621Z,-18701.88
2023-06-29T23:53:51.449Z,-18700.66
2023-06-29T23:56:54.054Z,-18699.69
2023-06-29T23:59:57.107Z,-18699.00
